Time;durP1;ratioP1;P1;durP2;ratioP2;P2;SDS_P1;SDS_P2;PMS_P1;PMS_P2;Temp;Humidity;BMP_temperature;BMP_pressure;BME280_temperature;BME280_humidity;BME280_pressure;Samples;Min_cycle;Max_cycle;Signal;HPM_P1;HPM_P2
2022/10/25 00:00:16;;;;;;;;;2.00;1.00;;;;;17.20;60.45;100935.69;5083260;27;68606;-54
2022/10/25 00:02:41;;;;;;;;;7.00;1.00;;;;;17.18;60.76;100950.78;5077367;27;47417;-55
2022/10/25 00:05:07;;;;;;;;;1.25;1.00;;;;;17.15;60.68;100945.66;5096502;27;59371;-55
2022/10/25 00:07:32;;;;;;;;;3.50;1.00;;;;;17.14;60.62;100950.09;5077719;27;45239;-55
2022/10/25 00:09:57;;;;;;;;;3.75;1.75;;;;;17.12;60.75;100946.66;5094835;27;54206;-54
2022/10/25 00:12:23;;;;;;;;;1.25;1.25;;;;;17.12;60.73;100949.28;5087997;27;69559;-53
2022/10/25 00:14:48;;;;;;;;;2.00;1.50;;;;;17.09;60.84;100941.53;5094838;27;45505;-54
2022/10/25 00:17:14;;;;;;;;;3.50;0.25;;;;;17.08;61.03;100947.75;5096420;27;45418;-55
2022/10/25 00:19:39;;;;;;;;;2.25;1.50;;;;;17.07;60.79;100948.69;5075291;27;57967;-55
2022/10/25 00:22:04;;;;;;;;;2.25;1.00;;;;;17.06;61.04;100947.81;5056535;27;70352;-54
2022/10/25 00:24:30;;;;;;;;;1.00;1.00;;;;;17.06;61.11;100949.63;5084904;27;45320;-54
2022/10/25 00:26:55;;;;;;;;;4.50;1.25;;;;;17.07;61.35;100949.56;5090622;27;46139;-54
2022/10/25 00:29:21;;;;;;;;;1.25;0.75;;;;;17.08;61.04;100945.09;5089581;27;45492;-52
2022/10/25 00:31:46;;;;;;;;;5.00;1.00;;;;;17.07;60.94;100938.97;5094762;27;58998;-55
2022/10/25 00:34:12;;;;;;;;;3.25;0.75;;;;;17.04;61.26;100946.22;5088820;27;45363;-53
2022/10/25 00:36:37;;;;;;;;;1.00;1.00;;;;;17.04;61.08;100948.84;5081705;27;45486;-50
2022/10/25 00:39:03;;;;;;;;;2.75;1.00;;;;;17.04;61.12;100944.41;5083183;27;50342;-54
2022/10/25 00:41:32;;;;;;;;;2.75;1.00;;;;;17.03;61.10;100950.66;5090790;27;72614;-51
2022/10/25 00:44:39;;;;;;;;;5.00;1.25;;;;;17.02;60.88;100953.38;5093917;27;45700;-52
2022/10/25 00:47:20;;;;;;;;;5.00;1.00;;;;;16.99;61.25;100949.06;5050480;27;45602;-57
2022/10/25 00:49:49;;;;;;;;;2.25;1.00;;;;;16.97;61.41;100943.00;5089106;27;45525;-54
2022/10/25 00:52:15;;;;;;;;;1.75;1.75;;;;;16.96;61.69;100957.16;5086930;27;46004;-50
2022/10/25 00:54:48;;;;;;;;;2.25;1.75;;;;;16.98;61.11;100954.44;5079602;27;45721;-54
2022/10/25 00:57:16;;;;;;;;;1.75;1.00;;;;;16.96;61.26;100951.88;5096103;27;45226;-54
2022/10/25 00:59:42;;;;;;;;;2.25;1.00;;;;;16.96;61.68;100961.59;5071155;27;45494;-51
2022/10/25 01:02:08;;;;;;;;;4.50;2.00;;;;;16.99;61.37;100964.09;5090456;27;45489;-53
2022/10/25 01:04:33;;;;;;;;;2.00;1.00;;;;;16.99;61.54;100966.72;5070287;27;46008;-52
2022/10/25 01:07:00;;;;;;;;;3.00;3.00;;;;;16.99;61.37;100964.09;5093503;27;60729;-51
2022/10/25 01:09:27;;;;;;;;;4.00;1.75;;;;;16.99;61.23;100962.28;5067322;27;45494;-49
2022/10/25 01:11:53;;;;;;;;;3.75;2.00;;;;;17.01;61.16;100960.41;5065327;27;46296;-54
2022/10/25 01:14:19;;;;;;;;;1.50;1.50;;;;;16.98;61.35;100957.94;5087746;27;45295;-53
2022/10/25 01:17:02;;;;;;;;;3.00;1.00;;;;;16.99;61.33;100962.28;5088808;27;45529;-54
2022/10/25 01:19:49;;;;;;;;;2.00;1.00;;;;;16.97;61.41;100958.88;5090401;27;45281;-54
2022/10/25 01:22:28;;;;;;;;;1.50;1.50;;;;;16.96;61.90;100957.16;5095957;27;46291;-54
2022/10/25 01:25:20;;;;;;;;;4.75;1.00;;;;;16.93;61.27;100962.63;5071459;27;45513;-52
2022/10/25 01:28:23;;;;;;;;;4.00;1.00;;;;;16.91;61.47;100958.31;5083029;27;45260;-51
2022/10/25 01:31:19;;;;;;;;;3.00;2.00;;;;;16.87;61.84;100962.91;5089522;27;45201;-53
2022/10/25 01:33:56;;;;;;;;;7.25;3.00;;;;;16.87;61.73;100962.91;5095952;27;45226;-53
2022/10/25 01:36:34;;;;;;;;;3.25;2.00;;;;;16.87;61.81;100961.13;5085061;27;46163;-50
2022/10/25 01:39:12;;;;;;;;;2.50;2.00;;;;;16.86;61.96;100959.41;5061530;27;46128;-53
2022/10/25 01:42:06;;;;;;;;;2.75;1.75;;;;;16.86;61.95;100948.84;5070126;27;45706;-54
2022/10/25 01:45:14;;;;;;;;;2.00;2.00;;;;;16.84;61.80;100956.00;5078677;27;45455;-52
2022/10/25 01:47:50;;;;;;;;;5.00;2.00;;;;;16.82;62.06;100952.53;5097777;27;45198;-53
2022/10/25 01:50:23;;;;;;;;;1.00;1.00;;;;;16.81;61.93;100953.47;5081670;27;45361;-51
2022/10/25 01:52:49;;;;;;;;;3.50;1.00;;;;;16.81;62.09;100956.09;5090787;27;45276;-54
2022/10/25 01:55:15;;;;;;;;;4.50;1.25;;;;;16.79;62.20;100955.34;5078893;27;50759;-49
2022/10/25 01:57:58;;;;;;;;;3.00;1.00;;;;;16.81;61.95;100956.09;5094271;27;45413;-53
2022/10/25 02:00:24;;;;;;;;;3.25;2.00;;;;;16.79;61.70;100951.84;5105906;27;45341;-52
2022/10/25 02:03:22;;;;;;;;;3.25;1.25;;;;;16.78;61.69;100953.59;5078071;27;45336;-51
2022/10/25 02:05:53;;;;;;;;;2.25;2.00;;;;;16.80;61.45;100954.41;5096318;27;46680;-51
2022/10/25 02:08:36;;;;;;;;;1.75;1.75;;;;;16.77;61.65;100959.84;5096082;27;45846;-53
2022/10/25 02:11:31;;;;;;;;;3.75;1.00;;;;;16.76;61.82;100952.84;5090909;27;45240;-50
2022/10/25 02:14:18;;;;;;;;;1.00;1.00;;;;;16.75;61.61;100948.50;5090381;27;45260;-53
2022/10/25 02:17:04;;;;;;;;;0.50;0.50;;;;;16.73;61.48;100946.84;5078046;27;45268;-51
2022/10/25 02:19:33;;;;;;;;;4.00;1.00;;;;;16.70;61.98;100956.63;5081503;27;45606;-50
2022/10/25 02:22:00;;;;;;;;;2.25;0.50;;;;;16.72;62.00;100955.72;5081460;27;45474;-53
2022/10/25 02:24:28;;;;;;;;;3.00;1.00;;;;;16.72;61.52;100968.94;5079483;27;45328;-52
2022/10/25 02:26:55;;;;;;;;;3.00;0.50;;;;;16.72;61.60;100955.72;5077973;27;46232;-52
2022/10/25 02:29:21;;;;;;;;;1.25;0.50;;;;;16.73;61.41;100967.97;5097277;27;45418;-50
2022/10/25 02:31:47;;;;;;;;;0.00;0.00;;;;;16.75;61.56;100969.63;5088407;27;51455;-54
2022/10/25 02:34:12;;;;;;;;;2.00;1.00;;;;;16.76;61.69;100970.47;5076715;27;69183;-50
2022/10/25 02:36:37;;;;;;;;;1.00;0.00;;;;;16.76;61.25;100965.19;5091346;27;70213;-51
2022/10/25 02:39:03;;;;;;;;;5.00;1.00;;;;;16.73;61.55;100971.47;5092603;27;54253;-53
2022/10/25 02:41:29;;;;;;;;;5.25;1.00;;;;;16.75;61.54;100971.41;5095089;27;45506;-53
2022/10/25 02:43:54;;;;;;;;;2.00;1.00;;;;;16.74;61.31;100964.44;5082724;27;45429;-53
2022/10/25 02:46:22;;;;;;;;;1.75;1.00;;;;;16.74;61.53;100967.06;5093679;27;46208;-54
2022/10/25 02:48:49;;;;;;;;;4.00;1.00;;;;;16.75;61.41;100966.13;5084943;27;45493;-53
2022/10/25 02:51:15;;;;;;;;;2.00;0.25;;;;;16.73;61.36;100971.47;5085079;27;45546;-52
2022/10/25 02:53:41;;;;;;;;;1.00;1.00;;;;;16.73;61.46;100965.34;5088072;27;45458;-53
2022/10/25 02:56:06;;;;;;;;;0.00;0.00;;;;;16.72;61.39;100974.22;5075882;27;47608;-53
2022/10/25 02:58:35;;;;;;;;;5.00;1.00;;;;;16.71;61.63;100968.06;5092347;27;45486;-53
2022/10/25 03:01:00;;;;;;;;;1.00;1.00;;;;;16.71;61.59;100962.78;5094647;27;45308;-52
2022/10/25 03:03:27;;;;;;;;;1.00;1.00;;;;;16.71;61.31;100957.47;5087124;27;45217;-53
2022/10/25 03:05:52;;;;;;;;;3.25;1.00;;;;;16.71;61.50;100968.06;5092077;27;45426;-53
2022/10/25 03:08:18;;;;;;;;;2.75;1.00;;;;;16.72;61.42;100961.00;5097771;27;69654;-53
2022/10/25 03:10:43;;;;;;;;;2.50;0.00;;;;;16.73;61.59;100962.69;5080236;27;45446;-52
2022/10/25 03:13:08;;;;;;;;;1.00;1.00;;;;;16.75;61.62;100968.75;5088859;27;67807;-49
2022/10/25 03:15:34;;;;;;;;;2.00;1.00;;;;;16.78;61.69;100971.25;5097364;27;74439;-54
2022/10/25 03:17:59;;;;;;;;;5.00;0.50;;;;;16.81;61.59;100974.59;5093550;27;69000;-52
2022/10/25 03:20:24;;;;;;;;;1.25;1.00;;;;;16.84;61.36;100973.66;5084814;27;65174;-54
2022/10/25 03:22:50;;;;;;;;;1.75;1.00;;;;;16.86;61.26;100969.13;5092833;27;57282;-53
2022/10/25 03:25:15;;;;;;;;;3.00;1.25;;;;;16.87;61.39;100969.06;5088097;27;74216;-55
2022/10/25 03:27:40;;;;;;;;;3.50;2.00;;;;;16.91;61.06;100971.53;5082788;27;64958;-51
2022/10/25 03:30:06;;;;;;;;;2.25;2.00;;;;;16.93;61.11;100965.25;5077465;27;45331;-53
2022/10/25 03:32:31;;;;;;;;;0.50;0.50;;;;;16.95;60.86;100971.31;5092387;27;45521;-54
2022/10/25 03:34:57;;;;;;;;;1.00;1.00;;;;;16.96;60.99;100967.72;5090578;27;72737;-52
2022/10/25 03:37:22;;;;;;;;;2.00;1.25;;;;;16.96;61.03;100978.28;5087834;27;66137;-50
2022/10/25 03:39:47;;;;;;;;;6.75;1.00;;;;;16.96;61.37;100988.03;5097349;27;63999;-53
2022/10/25 03:42:13;;;;;;;;;2.25;1.50;;;;;16.99;61.15;100986.09;5090355;27;64832;-52
2022/10/25 03:44:38;;;;;;;;;3.50;1.00;;;;;17.02;61.19;100985.09;5084873;27;69074;-53
2022/10/25 03:47:03;;;;;;;;;1.75;1.75;;;;;17.05;61.21;100998.13;5096434;27;56109;-53
2022/10/25 03:49:29;;;;;;;;;2.50;1.50;;;;;17.07;61.12;101005.06;5098173;27;45560;-50
2022/10/25 03:51:54;;;;;;;;;4.00;1.00;;;;;17.09;61.27;100999.72;5099505;27;61725;-52
2022/10/25 03:54:20;;;;;;;;;2.25;1.50;;;;;17.13;61.11;101000.41;5096044;27;45442;-52
2022/10/25 03:56:45;;;;;;;;;1.00;1.00;;;;;17.15;60.68;101001.19;5093525;27;45267;-51
2022/10/25 03:59:10;;;;;;;;;3.00;1.25;;;;;17.17;61.01;101000.16;5077917;27;68644;-53
2022/10/25 04:01:35;;;;;;;;;2.00;1.25;;;;;17.19;61.00;101000.09;5067999;27;67967;-52
2022/10/25 04:04:01;;;;;;;;;2.00;1.00;;;;;17.21;60.81;101000.88;5090658;27;71438;-51
2022/10/25 04:06:26;;;;;;;;;4.00;1.00;;;;;17.22;60.87;101000.78;5081009;27;63086;-53
2022/10/25 04:08:51;;;;;;;;;2.50;2.50;;;;;17.22;60.80;100998.16;5081690;27;45293;-53
2022/10/25 04:11:17;;;;;;;;;2.25;1.50;;;;;17.23;60.96;101001.69;5089118;27;54962;-52
2022/10/25 04:13:42;;;;;;;;;1.50;1.25;;;;;17.23;60.82;100997.22;5086986;27;54776;-52
2022/10/25 04:16:08;;;;;;;;;2.25;2.25;;;;;17.25;60.95;101005.09;5089402;27;68238;-53
2022/10/25 04:18:34;;;;;;;;;2.25;2.00;;;;;17.27;60.90;100995.28;5092332;27;45335;-50
2022/10/25 04:20:59;;;;;;;;;1.75;1.75;;;;;17.28;60.87;101004.91;5100035;27;45421;-52
2022/10/25 04:23:24;;;;;;;;;5.00;2.00;;;;;17.30;60.72;101000.44;5098154;27;64514;-54
2022/10/25 04:25:50;;;;;;;;;3.50;1.00;;;;;17.32;60.65;101009.13;5089960;27;72922;-50
2022/10/25 04:28:15;;;;;;;;;2.50;2.25;;;;;17.32;60.67;101000.34;5098523;27;45198;-52
2022/10/25 04:30:41;;;;;;;;;2.25;2.00;;;;;17.33;60.44;101009.97;5081548;27;71268;-53
2022/10/25 04:33:06;;;;;;;;;3.25;1.25;;;;;17.33;60.71;101000.25;5096906;27;45414;-48
2022/10/25 04:35:32;;;;;;;;;2.75;2.75;;;;;17.34;60.91;101011.72;5085628;27;60328;-51
2022/10/25 04:37:57;;;;;;;;;8.00;1.25;;;;;17.34;60.80;101007.25;5092097;27;45212;-50
2022/10/25 04:40:22;;;;;;;;;3.25;2.50;;;;;17.33;60.62;101009.97;5095110;27;45340;-52
2022/10/25 04:42:48;;;;;;;;;2.50;1.75;;;;;17.30;60.80;101007.47;5099806;27;45511;-54
2022/10/25 04:45:13;;;;;;;;;5.25;2.00;;;;;17.30;60.80;101011.00;5096405;27;56631;-52
2022/10/25 04:47:38;;;;;;;;;2.50;2.00;;;;;17.30;60.71;101010.13;5097202;27;45460;-52
2022/10/25 04:50:05;;;;;;;;;3.00;1.00;;;;;17.33;60.88;101012.63;5089530;27;71721;-52
2022/10/25 04:52:30;;;;;;;;;3.25;1.00;;;;;17.33;61.00;101005.53;5091162;27;47086;-52
2022/10/25 04:54:56;;;;;;;;;3.00;1.25;;;;;17.31;60.75;101011.84;5065266;27;45466;-52
2022/10/25 04:57:21;;;;;;;;;1.50;1.50;;;;;17.33;60.82;101009.97;5072636;27;45444;-53
2022/10/25 04:59:47;;;;;;;;;4.75;2.00;;;;;17.33;61.13;101013.47;5064572;27;45349;-53
2022/10/25 05:02:13;;;;;;;;;4.50;1.75;;;;;17.33;61.11;101012.63;5099408;27;61399;-50
2022/10/25 05:04:38;;;;;;;;;6.00;3.00;;;;;17.33;61.16;101021.41;5091731;27;45219;-50
2022/10/25 05:07:04;;;;;;;;;2.00;2.00;;;;;17.35;61.05;101016.94;5078916;27;70304;-53
2022/10/25 05:09:29;;;;;;;;;4.75;2.25;;;;;17.33;60.99;101012.63;5084790;27;62120;-50
2022/10/25 05:11:54;;;;;;;;;4.50;1.50;;;;;17.31;60.83;101014.50;5099404;27;68188;-50
2022/10/25 05:14:20;;;;;;;;;3.25;2.50;;;;;17.29;61.07;101016.38;5100986;27;58173;-51
2022/10/25 05:16:45;;;;;;;;;8.50;6.00;;;;;17.26;61.30;101018.25;5072886;27;45627;-52
2022/10/25 05:19:10;;;;;;;;;5.00;4.00;;;;;17.24;61.39;101020.09;5053388;27;45292;-53
2022/10/25 05:21:36;;;;;;;;;4.00;2.25;;;;;17.21;61.56;101016.75;5080296;27;73711;-52
2022/10/25 05:24:01;;;;;;;;;4.00;1.00;;;;;17.22;61.77;101021.94;5095142;27;52107;-52
2022/10/25 05:26:26;;;;;;;;;3.50;3.00;;;;;17.21;61.58;101019.38;5063692;27;45257;-51
2022/10/25 05:28:53;;;;;;;;;3.50;3.00;;;;;17.21;61.67;101016.75;5088381;27;69620;-51
2022/10/25 05:31:24;;;;;;;;;2.75;2.00;;;;;17.24;61.78;101021.88;5080103;27;46133;-50
2022/10/25 05:33:52;;;;;;;;;5.25;3.00;;;;;17.24;61.37;101019.25;5073882;27;45202;-52
2022/10/25 05:36:18;;;;;;;;;4.25;2.50;;;;;17.23;61.71;101021.03;5093342;27;45543;-54
2022/10/25 05:38:44;;;;;;;;;7.00;3.00;;;;;17.23;61.55;101026.31;5091773;27;45511;-52
2022/10/25 05:41:11;;;;;;;;;5.00;2.00;;;;;17.23;61.52;101022.84;5100083;27;45473;-53
2022/10/25 05:43:36;;;;;;;;;3.75;2.50;;;;;17.24;61.51;101030.66;5072000;27;45713;-53
2022/10/25 05:46:18;;;;;;;;;2.75;2.75;;;;;17.20;61.56;101023.81;5077343;27;45427;-53
2022/10/25 05:48:44;;;;;;;;;3.25;3.00;;;;;17.17;61.44;101021.31;5081480;27;45312;-51
2022/10/25 05:51:13;;;;;;;;;3.00;2.00;;;;;17.17;61.83;101021.31;5084168;27;45349;-49
2022/10/25 05:53:50;;;;;;;;;5.00;3.75;;;;;17.16;61.56;101019.63;5088449;27;45799;-53
2022/10/25 05:56:16;;;;;;;;;3.00;3.00;;;;;17.14;61.99;101013.56;5094106;27;45391;-51
2022/10/25 05:58:43;;;;;;;;;5.25;2.00;;;;;17.16;61.86;101019.63;5076546;27;45481;-51
2022/10/25 06:01:10;;;;;;;;;3.00;2.50;;;;;17.17;62.06;101016.03;5068772;27;45341;-51
2022/10/25 06:03:36;;;;;;;;;4.75;3.00;;;;;17.18;61.76;101028.34;5080957;27;45557;-52
2022/10/25 06:06:04;;;;;;;;;7.50;3.00;;;;;17.18;61.91;101028.34;5089736;27;45607;-52
2022/10/25 06:08:30;;;;;;;;;4.25;3.00;;;;;17.16;61.95;101027.56;5078847;27;45264;-52
2022/10/25 06:11:03;;;;;;;;;4.00;2.50;;;;;17.13;61.99;101027.72;5084269;27;45369;-50
2022/10/25 06:13:29;;;;;;;;;10.75;6.75;;;;;17.07;62.10;101025.38;5062285;27;45447;-48
2022/10/25 06:15:54;;;;;;;;;8.75;5.25;;;;;17.06;62.23;101029.78;5086613;27;45723;-53
2022/10/25 06:18:20;;;;;;;;;9.75;7.75;;;;;17.06;62.02;101029.78;5098178;27;59048;-50
2022/10/25 06:20:45;;;;;;;;;9.50;6.00;;;;;17.05;62.14;101028.09;5069426;27;72922;-46
2022/10/25 06:23:10;;;;;;;;;6.25;4.00;;;;;17.09;62.18;101034.09;5087790;27;68791;-49
2022/10/25 06:25:35;;;;;;;;;4.50;3.00;;;;;17.08;62.33;101030.56;5088083;27;45617;-51
2022/10/25 06:28:01;;;;;;;;;6.00;4.00;;;;;17.07;62.13;101033.31;5092667;27;63524;-50
2022/10/25 06:30:26;;;;;;;;;4.50;2.25;;;;;17.09;62.18;101031.44;5072105;27;48285;-52
2022/10/25 06:32:53;;;;;;;;;5.50;4.00;;;;;17.10;62.13;101033.16;5079673;27;70608;-52
2022/10/25 06:35:19;;;;;;;;;6.50;4.25;;;;;17.14;62.54;101039.13;5075615;27;45795;-52
2022/10/25 06:37:44;;;;;;;;;4.00;4.00;;;;;17.17;62.35;101045.13;5076117;28;45395;-48
2022/10/25 06:40:10;;;;;;;;;4.75;3.75;;;;;17.20;62.38;101052.91;5089522;27;72171;-50
2022/10/25 06:42:35;;;;;;;;;4.75;3.25;;;;;17.22;61.97;101051.06;5086271;27;45378;-52
2022/10/25 06:45:00;;;;;;;;;3.50;3.50;;;;;17.23;62.02;101049.28;5097606;27;64506;-53
2022/10/25 06:47:25;;;;;;;;;6.25;3.00;;;;;17.21;61.96;101046.72;5083436;27;68648;-52
2022/10/25 06:49:51;;;;;;;;;2.00;2.00;;;;;17.20;62.03;101042.34;5090913;27;73724;-51
2022/10/25 06:52:16;;;;;;;;;6.75;3.00;;;;;17.22;62.00;101058.13;5087734;27;45421;-53
2022/10/25 06:54:42;;;;;;;;;4.00;3.25;;;;;17.24;62.00;101056.25;5081267;27;58032;-53
2022/10/25 06:57:07;;;;;;;;;5.00;4.00;;;;;17.25;62.02;101055.34;5099018;27;45408;-52
2022/10/25 06:59:32;;;;;;;;;4.50;2.75;;;;;17.26;61.98;101063.22;5100452;27;45323;-54
2022/10/25 07:01:58;;;;;;;;;9.25;3.50;;;;;17.29;61.86;101070.13;5092568;27;69148;-54
2022/10/25 07:04:23;;;;;;;;;4.00;3.00;;;;;17.31;61.83;101056.81;5070870;27;45311;-54
2022/10/25 07:06:48;;;;;;;;;5.00;3.25;;;;;17.33;61.90;101062.88;5088471;27;46675;-53
2022/10/25 07:09:14;;;;;;;;;4.75;2.25;;;;;17.35;61.76;101067.19;5076505;27;45430;-49
2022/10/25 07:11:40;;;;;;;;;5.00;3.75;;;;;17.36;61.83;101062.75;5094777;27;45953;-54
2022/10/25 07:14:06;;;;;;;;;5.50;4.00;;;;;17.37;61.65;101061.78;5088555;27;45355;-53
2022/10/25 07:16:31;;;;;;;;;5.00;3.00;;;;;17.38;61.63;101059.06;5080786;27;45262;-50
2022/10/25 07:19:00;;;;;;;;;4.25;3.75;;;;;17.40;61.55;101059.84;5090378;27;45411;-53
2022/10/25 07:21:26;;;;;;;;;3.00;2.00;;;;;17.42;61.44;101065.06;5096795;27;45795;-51
2022/10/25 07:23:51;;;;;;;;;4.75;3.25;;;;;17.44;61.36;101065.84;5092072;27;45216;-53
2022/10/25 07:26:23;;;;;;;;;7.25;3.75;;;;;17.44;61.59;101072.00;5096465;27;46388;-54
2022/10/25 07:28:50;;;;;;;;;3.00;3.00;;;;;17.45;61.38;101078.16;5099594;27;46189;-51
2022/10/25 07:31:19;;;;;;;;;3.00;2.00;;;;;17.48;61.27;101079.81;5075409;28;45344;-54
2022/10/25 07:33:44;;;;;;;;;3.25;2.75;;;;;17.49;61.27;101078.84;5086326;27;45151;-54
2022/10/25 07:36:09;;;;;;;;;4.75;2.50;;;;;17.49;61.18;101081.50;5080499;27;45535;-52
2022/10/25 07:38:35;;;;;;;;;6.00;2.00;;;;;17.51;61.18;101077.84;5088293;27;45560;-49
2022/10/25 07:41:00;;;;;;;;;3.75;2.00;;;;;17.49;61.20;101079.69;5072986;27;45472;-49
2022/10/25 07:43:27;;;;;;;;;2.00;2.00;;;;;17.45;61.18;101083.44;5105665;27;61066;-49
2022/10/25 07:45:52;;;;;;;;;3.25;3.00;;;;;17.43;61.22;101085.31;5097526;27;46360;-49
2022/10/25 07:48:18;;;;;;;;;6.50;2.00;;;;;17.43;61.15;101085.31;5099710;27;46393;-51
2022/10/25 07:50:43;;;;;;;;;5.25;3.00;;;;;17.41;61.11;101088.03;5094217;27;70492;-51
2022/10/25 07:53:08;;;;;;;;;5.00;3.00;;;;;17.39;61.20;101092.53;5098894;27;45463;-50
2022/10/25 07:55:34;;;;;;;;;3.25;2.75;;;;;17.40;61.32;101090.75;5073259;27;71749;-52
2022/10/25 07:58:04;;;;;;;;;5.25;3.00;;;;;17.41;61.33;101089.81;5097862;27;72299;-49
2022/10/25 08:00:30;;;;;;;;;2.50;2.00;;;;;17.39;61.33;101092.53;5084767;27;46012;-50
2022/10/25 08:02:55;;;;;;;;;5.75;4.50;;;;;17.41;61.33;101093.31;5072921;27;45286;-49
2022/10/25 08:05:21;;;;;;;;;6.75;3.25;;;;;17.44;61.34;101095.81;5096118;27;45441;-54
2022/10/25 08:07:48;;;;;;;;;3.00;3.00;;;;;17.48;61.14;101095.69;5080951;27;45374;-54
2022/10/25 08:10:13;;;;;;;;;7.25;4.00;;;;;17.49;60.99;101090.28;5063121;27;45426;-51
2022/10/25 08:12:39;;;;;;;;;2.75;2.25;;;;;17.51;60.98;101092.84;5073313;27;45479;-52
2022/10/25 08:15:04;;;;;;;;;5.75;4.00;;;;;17.52;60.83;101094.59;5088914;27;64665;-53
2022/10/25 08:17:30;;;;;;;;;4.75;3.25;;;;;17.53;60.74;101088.34;5091231;27;46478;-48
2022/10/25 08:19:55;;;;;;;;;7.00;5.00;;;;;17.55;60.76;101089.16;5072540;27;45249;-49
2022/10/25 08:22:21;;;;;;;;;7.25;2.75;;;;;17.58;60.89;101081.03;5073828;28;45313;-50
2022/10/25 08:24:46;;;;;;;;;3.50;3.00;;;;;17.61;60.56;101087.00;5082714;27;71429;-51
2022/10/25 08:27:12;;;;;;;;;3.50;2.50;;;;;17.62;60.52;101070.22;5087037;27;45547;-52
2022/10/25 08:29:37;;;;;;;;;6.50;3.00;;;;;17.68;60.15;101078.78;5095457;27;67959;-54
2022/10/25 08:32:03;;;;;;;;;3.75;2.00;;;;;17.70;59.96;101080.41;5073466;27;45468;-50
2022/10/25 08:34:28;;;;;;;;;6.00;3.25;;;;;17.75;60.16;101072.22;5093329;27;45490;-51
2022/10/25 08:36:54;;;;;;;;;5.00;4.00;;;;;17.79;60.27;101076.41;5096353;27;46294;-50
2022/10/25 08:39:19;;;;;;;;;6.50;4.00;;;;;17.81;59.73;101083.38;5090516;27;72040;-50
2022/10/25 08:41:57;;;;;;;;;10.25;5.50;;;;;17.83;59.82;101084.13;5101339;27;52358;-47
2022/10/25 08:44:38;;;;;;;;;9.00;5.00;;;;;17.87;60.04;101073.44;5096059;27;45474;-51
2022/10/25 08:47:11;;;;;;;;;6.00;4.00;;;;;17.92;59.93;101077.53;5092126;27;46340;-53
2022/10/25 08:49:49;;;;;;;;;8.50;4.25;;;;;17.98;59.70;101076.34;5093977;27;45465;-51
2022/10/25 08:52:48;;;;;;;;;5.00;4.00;;;;;18.03;59.52;101076.97;5112438;27;45315;-53
2022/10/25 08:55:22;;;;;;;;;5.00;3.00;;;;;18.08;59.19;101072.28;5062148;27;45344;-53
2022/10/25 08:57:50;;;;;;;;;5.25;4.25;;;;;18.13;59.25;101078.22;5080685;28;46014;-51
2022/10/25 09:00:21;;;;;;;;;3.25;3.00;;;;;18.17;59.26;101076.25;5095077;27;73123;-52
2022/10/25 09:02:57;;;;;;;;;2.25;2.00;;;;;18.16;58.31;101074.53;5091638;27;45359;-52
2022/10/25 09:05:39;;;;;;;;;1.25;1.00;;;;;18.17;58.43;101073.59;5100120;27;45415;-50
2022/10/25 09:08:17;;;;;;;;;5.25;4.50;;;;;18.21;57.81;101077.78;5076819;28;45548;-51
2022/10/25 09:11:19;;;;;;;;;3.00;2.25;;;;;18.23;57.94;101080.34;5108018;27;45344;-52
2022/10/25 09:13:57;;;;;;;;;2.25;1.50;;;;;18.22;57.58;101090.09;5098535;27;45379;-54
2022/10/25 09:16:49;;;;;;;;;3.75;3.00;;;;;18.20;57.25;101084.00;5095515;27;45419;-53
2022/10/25 09:19:30;;;;;;;;;4.00;2.00;;;;;18.19;56.97;101083.16;5081543;27;46110;-51
2022/10/25 09:22:01;;;;;;;;;3.50;2.25;;;;;18.21;57.18;101075.13;5082875;27;45955;-51
2022/10/25 09:24:31;;;;;;;;;1.00;1.00;;;;;18.20;57.04;101074.28;5098574;27;45457;-50
2022/10/25 09:27:00;;;;;;;;;4.00;2.00;;;;;18.20;57.12;101071.63;5098951;27;45501;-50
2022/10/25 09:29:37;;;;;;;;;1.00;1.00;;;;;18.20;57.04;101066.34;5087825;27;45302;-49
2022/10/25 09:32:15;;;;;;;;;3.00;2.00;;;;;18.21;57.22;101067.19;5058150;27;45807;-49
2022/10/25 09:34:40;;;;;;;;;1.00;1.00;;;;;18.23;56.93;101069.75;5075086;28;45420;-48
2022/10/25 09:37:23;;;;;;;;;3.00;2.50;;;;;18.24;56.99;101067.03;5093205;27;45413;-51
2022/10/25 09:39:52;;;;;;;;;1.75;1.50;;;;;18.27;56.79;101068.66;5092381;27;46002;-49
2022/10/25 09:42:25;;;;;;;;;1.25;1.00;;;;;18.29;56.51;101067.66;5073742;27;45332;-49
2022/10/25 09:44:54;;;;;;;;;2.00;1.50;;;;;18.31;56.92;101075.47;5098084;27;45359;-50
2022/10/25 09:47:39;;;;;;;;;2.50;2.00;;;;;18.34;56.64;101062.94;5076999;28;45392;-53
2022/10/25 09:50:11;;;;;;;;;4.00;2.00;;;;;18.37;56.81;101046.03;5095042;27;47001;-48
2022/10/25 09:52:48;;;;;;;;;3.00;1.00;;;;;18.40;56.47;101051.16;5072578;27;45542;-54
2022/10/25 09:55:51;;;;;;;;;2.00;1.00;;;;;18.44;56.41;101057.16;5101951;27;45231;-50
2022/10/25 09:58:22;;;;;;;;;1.75;1.75;;;;;18.48;56.20;101056.03;5054326;28;45294;-50
2022/10/25 10:00:50;;;;;;;;;1.50;1.50;;;;;18.50;56.60;101057.66;5084993;27;45382;-53
2022/10/25 10:03:16;;;;;;;;;4.00;3.00;;;;;18.53;56.47;101061.94;5083012;27;45539;-51
2022/10/25 10:05:46;;;;;;;;;2.25;2.00;;;;;18.58;56.34;101060.72;5078668;28;69110;-47
2022/10/25 10:08:12;;;;;;;;;3.00;2.50;;;;;18.61;56.12;101057.06;5072330;28;45407;-47
2022/10/25 10:10:38;;;;;;;;;3.00;1.50;;;;;18.63;55.92;101056.97;5097175;27;47072;-48
2022/10/25 10:13:16;;;;;;;;;1.00;1.00;;;;;18.66;55.87;101052.38;5078503;27;54180;-46
2022/10/25 10:15:51;;;;;;;;;3.25;1.00;;;;;18.69;55.93;101046.88;5087670;27;45356;-50
2022/10/25 10:18:29;;;;;;;;;3.00;1.75;;;;;18.71;55.57;101052.94;5082150;27;45514;-47
2022/10/25 10:21:08;;;;;;;;;2.75;2.00;;;;;18.76;55.63;101053.53;5100751;27;46190;-52
2022/10/25 10:23:36;;;;;;;;;2.00;1.75;;;;;18.79;55.38;101045.44;5101310;27;45830;-52
2022/10/25 10:26:10;;;;;;;;;2.00;2.00;;;;;18.83;55.64;101045.28;5100397;27;45356;-51
2022/10/25 10:28:36;;;;;;;;;2.75;1.00;;;;;18.85;55.57;101046.91;5080300;27;45455;-49
2022/10/25 10:31:04;;;;;;;;;2.00;1.00;;;;;18.89;55.36;101048.47;5100859;27;45407;-50
2022/10/25 10:33:31;;;;;;;;;2.00;2.00;;;;;18.91;55.52;101037.72;5100370;27;45672;-47
2022/10/25 10:36:18;;;;;;;;;2.00;2.00;;;;;18.92;55.13;101039.47;5080887;27;45390;-51
2022/10/25 10:38:43;;;;;;;;;2.00;2.00;;;;;18.94;55.32;101042.88;5071904;27;45447;-48
2022/10/25 10:41:24;;;;;;;;;3.00;2.00;;;;;18.96;55.08;101041.84;5101046;27;45337;-49
2022/10/25 10:43:50;;;;;;;;;5.25;2.00;;;;;18.99;55.22;101046.13;5074687;28;45381;-47
2022/10/25 10:46:18;;;;;;;;;4.25;2.00;;;;;19.01;55.11;101048.69;5091867;27;45306;-48
2022/10/25 10:48:52;;;;;;;;;2.50;2.00;;;;;19.04;55.20;101038.75;5078195;28;45405;-52
2022/10/25 10:51:19;;;;;;;;;3.50;2.00;;;;;19.05;55.17;101029.88;5054432;28;45414;-49
2022/10/25 10:53:45;;;;;;;;;3.75;2.75;;;;;19.07;55.25;101027.97;5076804;27;45321;-49
2022/10/25 10:56:18;;;;;;;;;4.50;3.00;;;;;19.11;54.62;101031.31;5097858;27;60002;-47
2022/10/25 10:58:47;;;;;;;;;3.00;3.00;;;;;19.13;54.93;101024.94;5094220;27;45363;-50
2022/10/25 11:01:27;;;;;;;;;5.25;3.00;;;;;19.17;55.15;101017.66;5088840;27;46468;-48
2022/10/25 11:03:56;;;;;;;;;6.50;3.25;;;;;19.20;55.20;101009.53;5077638;28;45343;-48
2022/10/25 11:06:28;;;;;;;;;7.75;6.00;;;;;19.25;55.04;101011.94;5092878;27;45370;-47
2022/10/25 11:09:23;;;;;;;;;9.50;6.00;;;;;19.28;55.42;101009.94;5100427;27;45458;-50
2022/10/25 11:12:11;;;;;;;;;4.00;3.00;;;;;19.30;55.10;101008.06;5079584;27;46115;-45
2022/10/25 11:14:37;;;;;;;;;7.75;5.00;;;;;19.33;55.33;100996.38;5079120;27;45801;-48
2022/10/25 11:17:15;;;;;;;;;4.50;4.25;;;;;19.35;55.24;101002.44;5098842;27;46483;-47
2022/10/25 11:20:08;;;;;;;;;7.00;4.75;;;;;19.35;55.20;100999.78;5074674;27;45407;-48
2022/10/25 11:22:42;;;;;;;;;6.50;6.50;;;;;19.38;54.97;100998.78;5081273;27;45715;-48
2022/10/25 11:25:25;;;;;;;;;9.75;4.50;;;;;19.41;55.12;100995.94;5070330;27;45355;-50
2022/10/25 11:28:01;;;;;;;;;6.75;6.75;;;;;19.40;55.20;100988.91;5095370;27;45360;-47
2022/10/25 11:31:05;;;;;;;;;6.00;5.00;;;;;19.40;55.13;100989.75;5081875;27;45470;-47
2022/10/25 11:33:56;;;;;;;;;7.00;7.00;;;;;19.39;55.08;100988.06;5068576;27;46207;-46
2022/10/25 11:36:35;;;;;;;;;13.00;10.00;;;;;19.40;55.26;100987.09;5044585;27;45743;-50